sensor_id;sensor_type;location;lat;lon;timestamp;temperature;humidity
52787;DHT22;38661;53.152;5.846;2024-02-04T00:00:34;7.20;94.00
52787;DHT22;38661;53.152;5.846;2024-02-04T00:03:01;7.10;94.20
52787;DHT22;38661;53.152;5.846;2024-02-04T00:05:26;7.20;94.10
52787;DHT22;38661;53.152;5.846;2024-02-04T00:07:52;7.10;94.10
52787;DHT22;38661;53.152;5.846;2024-02-04T00:10:18;7.00;94.10
52787;DHT22;38661;53.152;5.846;2024-02-04T00:12:44;7.00;94.10
52787;DHT22;38661;53.152;5.846;2024-02-04T00:15:10;7.00;94.00
52787;DHT22;38661;53.152;5.846;2024-02-04T00:17:35;7.00;94.00
52787;DHT22;38661;53.152;5.846;2024-02-04T00:20:03;6.90;94.10
52787;DHT22;38661;53.152;5.846;2024-02-04T00:22:31;6.80;94.00
52787;DHT22;38661;53.152;5.846;2024-02-04T00:24:59;6.80;94.10
52787;DHT22;38661;53.152;5.846;2024-02-04T00:27:33;6.80;94.30
52787;DHT22;38661;53.152;5.846;2024-02-04T00:29:59;6.70;94.00
52787;DHT22;38661;53.152;5.846;2024-02-04T00:32:26;6.80;94.10
52787;DHT22;38661;53.152;5.846;2024-02-04T00:34:52;6.80;94.10
52787;DHT22;38661;53.152;5.846;2024-02-04T00:37:18;6.70;93.90
52787;DHT22;38661;53.152;5.846;2024-02-04T00:39:44;6.70;93.90
52787;DHT22;38661;53.152;5.846;2024-02-04T00:42:10;6.70;94.00
52787;DHT22;38661;53.152;5.846;2024-02-04T00:44:36;6.70;93.50
52787;DHT22;38661;53.152;5.846;2024-02-04T00:47:02;6.70;93.60
52787;DHT22;38661;53.152;5.846;2024-02-04T00:49:28;6.60;93.50
52787;DHT22;38661;53.152;5.846;2024-02-04T00:51:54;6.60;93.60
52787;DHT22;38661;53.152;5.846;2024-02-04T00:54:20;6.70;93.10
52787;DHT22;38661;53.152;5.846;2024-02-04T00:56:46;6.60;92.80
52787;DHT22;38661;53.152;5.846;2024-02-04T00:59:11;6.60;92.60
52787;DHT22;38661;53.152;5.846;2024-02-04T01:01:38;6.50;92.80
52787;DHT22;38661;53.152;5.846;2024-02-04T01:04:04;6.50;92.80
52787;DHT22;38661;53.152;5.846;2024-02-04T01:06:29;6.50;92.70
52787;DHT22;38661;53.152;5.846;2024-02-04T01:08:58;6.50;92.70
52787;DHT22;38661;53.152;5.846;2024-02-04T01:11:24;6.50;92.80
52787;DHT22;38661;53.152;5.846;2024-02-04T01:13:50;6.60;92.80
52787;DHT22;38661;53.152;5.846;2024-02-04T01:16:15;6.60;92.80
52787;DHT22;38661;53.152;5.846;2024-02-04T01:18:41;6.60;92.80
52787;DHT22;38661;53.152;5.846;2024-02-04T01:21:07;6.50;92.80
52787;DHT22;38661;53.152;5.846;2024-02-04T01:23:34;6.50;92.90
52787;DHT22;38661;53.152;5.846;2024-02-04T01:26:00;6.50;92.90
52787;DHT22;38661;53.152;5.846;2024-02-04T01:28:26;6.50;93.00
52787;DHT22;38661;53.152;5.846;2024-02-04T01:30:51;6.60;93.00
52787;DHT22;38661;53.152;5.846;2024-02-04T01:33:17;6.50;93.20
52787;DHT22;38661;53.152;5.846;2024-02-04T01:35:43;6.50;93.10
52787;DHT22;38661;53.152;5.846;2024-02-04T01:38:08;6.50;93.30
52787;DHT22;38661;53.152;5.846;2024-02-04T01:40:35;6.50;93.30
52787;DHT22;38661;53.152;5.846;2024-02-04T01:43:01;6.60;93.30
52787;DHT22;38661;53.152;5.846;2024-02-04T01:45:27;6.50;93.50
52787;DHT22;38661;53.152;5.846;2024-02-04T01:47:53;6.60;93.60
52787;DHT22;38661;53.152;5.846;2024-02-04T01:50:19;6.60;93.70
52787;DHT22;38661;53.152;5.846;2024-02-04T01:52:46;6.50;93.60
52787;DHT22;38661;53.152;5.846;2024-02-04T01:55:12;6.60;93.80
52787;DHT22;38661;53.152;5.846;2024-02-04T01:57:39;6.50;93.90
52787;DHT22;38661;53.152;5.846;2024-02-04T02:00:05;6.50;94.10
52787;DHT22;38661;53.152;5.846;2024-02-04T02:02:33;6.40;94.30
52787;DHT22;38661;53.152;5.846;2024-02-04T02:04:59;6.40;94.40
52787;DHT22;38661;53.152;5.846;2024-02-04T02:07:25;6.40;94.40
52787;DHT22;38661;53.152;5.846;2024-02-04T02:09:53;6.40;94.60
52787;DHT22;38661;53.152;5.846;2024-02-04T02:12:47;6.50;94.50
52787;DHT22;38661;53.152;5.846;2024-02-04T02:15:21;6.40;94.60
52787;DHT22;38661;53.152;5.846;2024-02-04T02:18:27;6.50;94.90
52787;DHT22;38661;53.152;5.846;2024-02-04T02:21:16;6.40;94.90
52787;DHT22;38661;53.152;5.846;2024-02-04T02:26:18;6.40;95.30
52787;DHT22;38661;53.152;5.846;2024-02-04T02:28:44;6.40;95.10
52787;DHT22;38661;53.152;5.846;2024-02-04T02:31:10;6.40;95.20
52787;DHT22;38661;53.152;5.846;2024-02-04T02:33:36;6.30;95.20
52787;DHT22;38661;53.152;5.846;2024-02-04T02:36:07;6.30;95.30
52787;DHT22;38661;53.152;5.846;2024-02-04T02:38:52;6.40;95.40
52787;DHT22;38661;53.152;5.846;2024-02-04T02:41:22;6.40;95.30
52787;DHT22;38661;53.152;5.846;2024-02-04T02:43:51;6.40;95.20
52787;DHT22;38661;53.152;5.846;2024-02-04T02:46:19;6.30;95.20
52787;DHT22;38661;53.152;5.846;2024-02-04T02:48:45;6.30;95.30
52787;DHT22;38661;53.152;5.846;2024-02-04T02:51:11;6.30;95.40
52787;DHT22;38661;53.152;5.846;2024-02-04T02:53:36;6.30;95.20
52787;DHT22;38661;53.152;5.846;2024-02-04T02:56:02;6.30;95.10
52787;DHT22;38661;53.152;5.846;2024-02-04T02:58:28;6.20;95.10
52787;DHT22;38661;53.152;5.846;2024-02-04T03:00:54;6.20;95.00
52787;DHT22;38661;53.152;5.846;2024-02-04T03:03:19;6.10;94.90
52787;DHT22;38661;53.152;5.846;2024-02-04T03:05:45;6.10;95.00
52787;DHT22;38661;53.152;5.846;2024-02-04T03:08:11;6.20;94.80
52787;DHT22;38661;53.152;5.846;2024-02-04T03:10:36;6.10;94.90
52787;DHT22;38661;53.152;5.846;2024-02-04T03:13:02;6.10;94.90
52787;DHT22;38661;53.152;5.846;2024-02-04T03:15:28;6.20;94.80
52787;DHT22;38661;53.152;5.846;2024-02-04T03:17:53;6.10;94.80
52787;DHT22;38661;53.152;5.846;2024-02-04T03:20:19;6.20;95.00
52787;DHT22;38661;53.152;5.846;2024-02-04T03:22:45;6.20;94.90
52787;DHT22;38661;53.152;5.846;2024-02-04T03:25:11;6.20;94.90
52787;DHT22;38661;53.152;5.846;2024-02-04T03:27:39;6.20;94.90
52787;DHT22;38661;53.152;5.846;2024-02-04T03:30:05;6.20;94.90
52787;DHT22;38661;53.152;5.846;2024-02-04T03:32:31;6.20;95.10
52787;DHT22;38661;53.152;5.846;2024-02-04T03:35:00;6.20;95.00
52787;DHT22;38661;53.152;5.846;2024-02-04T03:37:26;6.30;95.10
52787;DHT22;38661;53.152;5.846;2024-02-04T03:39:52;6.30;95.00
52787;DHT22;38661;53.152;5.846;2024-02-04T03:42:18;6.30;95.00
52787;DHT22;38661;53.152;5.846;2024-02-04T03:44:45;6.30;95.10
52787;DHT22;38661;53.152;5.846;2024-02-04T03:47:10;6.30;95.10
52787;DHT22;38661;53.152;5.846;2024-02-04T03:49:36;6.40;95.20
52787;DHT22;38661;53.152;5.846;2024-02-04T03:52:02;6.30;95.10
52787;DHT22;38661;53.152;5.846;2024-02-04T03:54:27;6.40;95.20
52787;DHT22;38661;53.152;5.846;2024-02-04T03:56:53;6.40;95.10
52787;DHT22;38661;53.152;5.846;2024-02-04T03:59:19;6.40;95.20
52787;DHT22;38661;53.152;5.846;2024-02-04T04:01:51;6.50;95.00
52787;DHT22;38661;53.152;5.846;2024-02-04T04:04:19;6.50;95.00
52787;DHT22;38661;53.152;5.846;2024-02-04T04:06:45;6.50;95.00
52787;DHT22;38661;53.152;5.846;2024-02-04T04:09:11;6.50;95.20
52787;DHT22;38661;53.152;5.846;2024-02-04T04:11:37;6.50;95.00
52787;DHT22;38661;53.152;5.846;2024-02-04T04:14:02;6.50;95.00
52787;DHT22;38661;53.152;5.846;2024-02-04T04:16:28;6.60;94.80
52787;DHT22;38661;53.152;5.846;2024-02-04T04:18:54;6.60;94.90
52787;DHT22;38661;53.152;5.846;2024-02-04T04:21:20;6.60;94.90
52787;DHT22;38661;53.152;5.846;2024-02-04T04:23:46;6.60;94.90
52787;DHT22;38661;53.152;5.846;2024-02-04T04:26:11;6.60;94.90
52787;DHT22;38661;53.152;5.846;2024-02-04T04:28:37;6.60;94.70
52787;DHT22;38661;53.152;5.846;2024-02-04T04:31:03;6.60;94.70
52787;DHT22;38661;53.152;5.846;2024-02-04T04:33:29;6.50;94.70
52787;DHT22;38661;53.152;5.846;2024-02-04T04:35:55;6.50;94.60
52787;DHT22;38661;53.152;5.846;2024-02-04T04:38:21;6.50;94.60
52787;DHT22;38661;53.152;5.846;2024-02-04T04:40:47;6.60;94.70
52787;DHT22;38661;53.152;5.846;2024-02-04T04:43:13;6.50;94.60
52787;DHT22;38661;53.152;5.846;2024-02-04T04:45:39;6.50;94.60
52787;DHT22;38661;53.152;5.846;2024-02-04T04:48:05;6.50;94.70
52787;DHT22;38661;53.152;5.846;2024-02-04T04:50:33;6.50;94.70
52787;DHT22;38661;53.152;5.846;2024-02-04T04:52:59;6.50;94.60
52787;DHT22;38661;53.152;5.846;2024-02-04T04:55:25;6.50;94.50
52787;DHT22;38661;53.152;5.846;2024-02-04T04:57:50;6.50;94.50
52787;DHT22;38661;53.152;5.846;2024-02-04T05:00:18;6.60;94.60
52787;DHT22;38661;53.152;5.846;2024-02-04T05:02:43;6.60;94.30
52787;DHT22;38661;53.152;5.846;2024-02-04T05:05:12;6.60;94.30
52787;DHT22;38661;53.152;5.846;2024-02-04T05:07:39;6.60;94.20
52787;DHT22;38661;53.152;5.846;2024-02-04T05:10:05;6.60;94.20
52787;DHT22;38661;53.152;5.846;2024-02-04T05:12:32;6.60;94.30
52787;DHT22;38661;53.152;5.846;2024-02-04T05:14:58;6.60;94.30
52787;DHT22;38661;53.152;5.846;2024-02-04T05:17:24;6.60;94.30
52787;DHT22;38661;53.152;5.846;2024-02-04T05:19:49;6.60;94.20
52787;DHT22;38661;53.152;5.846;2024-02-04T05:22:15;6.60;94.20
52787;DHT22;38661;53.152;5.846;2024-02-04T05:24:41;6.50;94.30
52787;DHT22;38661;53.152;5.846;2024-02-04T05:27:07;6.60;94.20
52787;DHT22;38661;53.152;5.846;2024-02-04T05:29:33;6.60;94.20
52787;DHT22;38661;53.152;5.846;2024-02-04T05:31:59;6.60;94.20
52787;DHT22;38661;53.152;5.846;2024-02-04T05:34:25;6.60;94.20
52787;DHT22;38661;53.152;5.846;2024-02-04T05:36:50;6.60;94.20
52787;DHT22;38661;53.152;5.846;2024-02-04T05:39:16;6.60;94.10
52787;DHT22;38661;53.152;5.846;2024-02-04T05:41:42;6.70;94.00
52787;DHT22;38661;53.152;5.846;2024-02-04T05:44:09;6.70;94.00
52787;DHT22;38661;53.152;5.846;2024-02-04T05:46:38;6.80;93.90
52787;DHT22;38661;53.152;5.846;2024-02-04T05:49:04;6.80;93.90
52787;DHT22;38661;53.152;5.846;2024-02-04T05:51:40;6.80;93.60
52787;DHT22;38661;53.152;5.846;2024-02-04T05:54:07;6.80;93.70
52787;DHT22;38661;53.152;5.846;2024-02-04T05:56:33;6.80;93.60
52787;DHT22;38661;53.152;5.846;2024-02-04T05:59:01;6.90;93.40
52787;DHT22;38661;53.152;5.846;2024-02-04T06:01:27;6.80;93.40
52787;DHT22;38661;53.152;5.846;2024-02-04T06:03:53;6.90;93.30
52787;DHT22;38661;53.152;5.846;2024-02-04T06:06:18;7.00;93.20
52787;DHT22;38661;53.152;5.846;2024-02-04T06:08:45;7.00;93.00
52787;DHT22;38661;53.152;5.846;2024-02-04T06:11:14;6.90;93.00
52787;DHT22;38661;53.152;5.846;2024-02-04T06:13:41;7.00;93.00
52787;DHT22;38661;53.152;5.846;2024-02-04T06:16:07;7.00;92.90
52787;DHT22;38661;53.152;5.846;2024-02-04T06:18:35;7.00;92.70
52787;DHT22;38661;53.152;5.846;2024-02-04T06:21:02;7.00;92.60
52787;DHT22;38661;53.152;5.846;2024-02-04T06:23:27;7.00;92.40
52787;DHT22;38661;53.152;5.846;2024-02-04T06:25:53;7.00;92.30
52787;DHT22;38661;53.152;5.846;2024-02-04T06:28:19;7.10;92.00
52787;DHT22;38661;53.152;5.846;2024-02-04T06:30:44;7.10;91.70
52787;DHT22;38661;53.152;5.846;2024-02-04T06:33:10;7.10;91.50
52787;DHT22;38661;53.152;5.846;2024-02-04T06:35:36;7.10;91.20
52787;DHT22;38661;53.152;5.846;2024-02-04T06:38:01;7.20;91.20
52787;DHT22;38661;53.152;5.846;2024-02-04T06:40:27;7.20;91.00
52787;DHT22;38661;53.152;5.846;2024-02-04T06:42:53;7.20;91.00
52787;DHT22;38661;53.152;5.846;2024-02-04T06:45:18;7.10;91.10
52787;DHT22;38661;53.152;5.846;2024-02-04T06:47:44;7.10;91.10
52787;DHT22;38661;53.152;5.846;2024-02-04T06:50:12;7.20;91.30
52787;DHT22;38661;53.152;5.846;2024-02-04T06:52:45;7.20;91.30
52787;DHT22;38661;53.152;5.846;2024-02-04T06:55:11;7.20;91.10
52787;DHT22;38661;53.152;5.846;2024-02-04T06:57:38;7.20;91.10
52787;DHT22;38661;53.152;5.846;2024-02-04T07:00:06;7.10;91.30
52787;DHT22;38661;53.152;5.846;2024-02-04T07:02:34;7.20;91.10
52787;DHT22;38661;53.152;5.846;2024-02-04T07:05:00;7.30;91.20
52787;DHT22;38661;53.152;5.846;2024-02-04T07:07:25;7.30;91.20
52787;DHT22;38661;53.152;5.846;2024-02-04T07:09:51;7.20;91.30
52787;DHT22;38661;53.152;5.846;2024-02-04T07:12:17;7.30;91.30
52787;DHT22;38661;53.152;5.846;2024-02-04T07:14:42;7.30;91.00
52787;DHT22;38661;53.152;5.846;2024-02-04T07:17:08;7.40;90.90
52787;DHT22;38661;53.152;5.846;2024-02-04T07:19:34;7.40;91.10
52787;DHT22;38661;53.152;5.846;2024-02-04T07:22:01;7.50;91.00
52787;DHT22;38661;53.152;5.846;2024-02-04T07:24:29;7.50;90.90
52787;DHT22;38661;53.152;5.846;2024-02-04T07:26:55;7.50;91.10
52787;DHT22;38661;53.152;5.846;2024-02-04T07:29:21;7.50;91.10
52787;DHT22;38661;53.152;5.846;2024-02-04T07:31:46;7.60;91.10
52787;DHT22;38661;53.152;5.846;2024-02-04T07:34:15;7.50;90.90
52787;DHT22;38661;53.152;5.846;2024-02-04T07:36:44;7.60;90.90
52787;DHT22;38661;53.152;5.846;2024-02-04T07:39:10;7.60;91.10
52787;DHT22;38661;53.152;5.846;2024-02-04T07:41:39;7.60;91.10
52787;DHT22;38661;53.152;5.846;2024-02-04T07:44:05;7.50;91.20
52787;DHT22;38661;53.152;5.846;2024-02-04T07:46:30;7.50;91.30
52787;DHT22;38661;53.152;5.846;2024-02-04T07:48:56;7.50;91.50
52787;DHT22;38661;53.152;5.846;2024-02-04T07:51:22;7.60;91.60
52787;DHT22;38661;53.152;5.846;2024-02-04T07:53:48;7.50;91.70
52787;DHT22;38661;53.152;5.846;2024-02-04T07:56:15;7.50;91.80
52787;DHT22;38661;53.152;5.846;2024-02-04T07:58:41;7.60;91.90
52787;DHT22;38661;53.152;5.846;2024-02-04T08:01:07;7.60;91.90
52787;DHT22;38661;53.152;5.846;2024-02-04T08:03:33;7.60;91.90
52787;DHT22;38661;53.152;5.846;2024-02-04T08:05:58;7.60;91.90
52787;DHT22;38661;53.152;5.846;2024-02-04T08:08:24;7.70;92.00
52787;DHT22;38661;53.152;5.846;2024-02-04T08:10:53;7.60;92.10
52787;DHT22;38661;53.152;5.846;2024-02-04T08:13:18;7.60;92.20
52787;DHT22;38661;53.152;5.846;2024-02-04T08:15:44;7.70;92.20
52787;DHT22;38661;53.152;5.846;2024-02-04T08:18:10;7.70;92.20
52787;DHT22;38661;53.152;5.846;2024-02-04T08:20:36;7.70;92.30
52787;DHT22;38661;53.152;5.846;2024-02-04T08:23:01;7.70;92.20
52787;DHT22;38661;53.152;5.846;2024-02-04T08:25:27;7.60;92.30
52787;DHT22;38661;53.152;5.846;2024-02-04T08:27:53;7.60;92.40
52787;DHT22;38661;53.152;5.846;2024-02-04T08:30:19;7.60;92.30
52787;DHT22;38661;53.152;5.846;2024-02-04T08:32:45;7.70;92.30
52787;DHT22;38661;53.152;5.846;2024-02-04T08:35:11;7.70;92.30
52787;DHT22;38661;53.152;5.846;2024-02-04T08:37:37;7.70;92.20
52787;DHT22;38661;53.152;5.846;2024-02-04T08:40:07;7.70;92.00
52787;DHT22;38661;53.152;5.846;2024-02-04T08:42:34;7.80;91.80
52787;DHT22;38661;53.152;5.846;2024-02-04T08:45:00;7.70;91.90
52787;DHT22;38661;53.152;5.846;2024-02-04T08:47:27;7.70;91.80
52787;DHT22;38661;53.152;5.846;2024-02-04T08:49:53;7.70;91.80
52787;DHT22;38661;53.152;5.846;2024-02-04T08:52:20;7.80;91.60
52787;DHT22;38661;53.152;5.846;2024-02-04T08:54:46;7.70;91.40
52787;DHT22;38661;53.152;5.846;2024-02-04T08:57:11;7.80;91.40
52787;DHT22;38661;53.152;5.846;2024-02-04T08:59:40;7.80;91.30
52787;DHT22;38661;53.152;5.846;2024-02-04T09:02:09;7.80;91.20
52787;DHT22;38661;53.152;5.846;2024-02-04T09:04:35;7.80;91.10
52787;DHT22;38661;53.152;5.846;2024-02-04T09:07:06;7.80;91.30
52787;DHT22;38661;53.152;5.846;2024-02-04T09:09:32;7.80;90.90
52787;DHT22;38661;53.152;5.846;2024-02-04T09:11:58;7.80;90.90
52787;DHT22;38661;53.152;5.846;2024-02-04T09:14:24;7.90;90.70
52787;DHT22;38661;53.152;5.846;2024-02-04T09:16:49;7.90;90.70
52787;DHT22;38661;53.152;5.846;2024-02-04T09:19:15;8.00;90.70
52787;DHT22;38661;53.152;5.846;2024-02-04T09:21:41;8.10;90.60
52787;DHT22;38661;53.152;5.846;2024-02-04T09:24:07;8.10;90.50
52787;DHT22;38661;53.152;5.846;2024-02-04T09:26:33;8.10;90.60
52787;DHT22;38661;53.152;5.846;2024-02-04T09:28:59;8.10;90.40
52787;DHT22;38661;53.152;5.846;2024-02-04T09:31:24;8.20;90.30
52787;DHT22;38661;53.152;5.846;2024-02-04T09:33:50;8.20;90.20
52787;DHT22;38661;53.152;5.846;2024-02-04T09:36:16;8.20;89.90
52787;DHT22;38661;53.152;5.846;2024-02-04T09:38:41;8.20;89.70
52787;DHT22;38661;53.152;5.846;2024-02-04T09:41:07;8.20;89.80
52787;DHT22;38661;53.152;5.846;2024-02-04T09:43:35;8.30;89.50
52787;DHT22;38661;53.152;5.846;2024-02-04T09:46:00;8.30;89.40
52787;DHT22;38661;53.152;5.846;2024-02-04T09:48:30;8.30;89.10
52787;DHT22;38661;53.152;5.846;2024-02-04T09:50:57;8.40;88.70
52787;DHT22;38661;53.152;5.846;2024-02-04T09:53:33;8.50;88.30
52787;DHT22;38661;53.152;5.846;2024-02-04T09:56:03;8.50;88.30
52787;DHT22;38661;53.152;5.846;2024-02-04T09:58:29;8.60;88.10
52787;DHT22;38661;53.152;5.846;2024-02-04T10:00:55;8.70;87.90
52787;DHT22;38661;53.152;5.846;2024-02-04T10:03:21;8.70;87.60
52787;DHT22;38661;53.152;5.846;2024-02-04T10:05:47;8.80;87.60
52787;DHT22;38661;53.152;5.846;2024-02-04T10:08:14;8.80;87.50
52787;DHT22;38661;53.152;5.846;2024-02-04T10:10:40;8.80;87.40
52787;DHT22;38661;53.152;5.846;2024-02-04T10:13:10;8.90;87.40
52787;DHT22;38661;53.152;5.846;2024-02-04T10:15:36;8.80;87.30
52787;DHT22;38661;53.152;5.846;2024-02-04T10:18:08;8.90;87.40
52787;DHT22;38661;53.152;5.846;2024-02-04T10:20:34;8.90;87.60
52787;DHT22;38661;53.152;5.846;2024-02-04T10:23:00;8.90;87.70
52787;DHT22;38661;53.152;5.846;2024-02-04T10:25:26;8.90;87.60
52787;DHT22;38661;53.152;5.846;2024-02-04T10:27:55;8.90;87.60
52787;DHT22;38661;53.152;5.846;2024-02-04T10:30:22;8.90;87.70
52787;DHT22;38661;53.152;5.846;2024-02-04T10:32:52;8.90;87.70
52787;DHT22;38661;53.152;5.846;2024-02-04T10:35:20;8.90;87.80
52787;DHT22;38661;53.152;5.846;2024-02-04T10:37:46;9.00;87.70
52787;DHT22;38661;53.152;5.846;2024-02-04T10:40:12;8.90;87.80
52787;DHT22;38661;53.152;5.846;2024-02-04T10:42:38;9.00;87.70
52787;DHT22;38661;53.152;5.846;2024-02-04T10:45:08;9.10;87.60
52787;DHT22;38661;53.152;5.846;2024-02-04T10:47:37;9.10;87.80
52787;DHT22;38661;53.152;5.846;2024-02-04T10:50:04;9.10;88.00
52787;DHT22;38661;53.152;5.846;2024-02-04T10:52:36;9.10;88.10
52787;DHT22;38661;53.152;5.846;2024-02-04T10:55:06;9.10;88.00
52787;DHT22;38661;53.152;5.846;2024-02-04T10:57:32;9.20;88.30
52787;DHT22;38661;53.152;5.846;2024-02-04T10:59:59;9.10;88.30
52787;DHT22;38661;53.152;5.846;2024-02-04T11:02:26;9.10;88.80
52787;DHT22;38661;53.152;5.846;2024-02-04T11:04:53;9.10;89.00
52787;DHT22;38661;53.152;5.846;2024-02-04T11:07:20;9.10;89.30
52787;DHT22;38661;53.152;5.846;2024-02-04T11:09:46;9.20;89.60
52787;DHT22;38661;53.152;5.846;2024-02-04T11:12:16;9.10;89.70
52787;DHT22;38661;53.152;5.846;2024-02-04T11:14:46;9.10;90.00
52787;DHT22;38661;53.152;5.846;2024-02-04T11:25:42;9.20;90.40
52787;DHT22;38661;53.152;5.846;2024-02-04T11:28:11;9.10;90.40
52787;DHT22;38661;53.152;5.846;2024-02-04T11:30:38;9.20;90.50
52787;DHT22;38661;53.152;5.846;2024-02-04T11:33:05;9.20;90.20
52787;DHT22;38661;53.152;5.846;2024-02-04T11:35:32;9.30;89.90
52787;DHT22;38661;53.152;5.846;2024-02-04T11:37:58;9.20;89.80
52787;DHT22;38661;53.152;5.846;2024-02-04T11:40:37;9.20;89.80
52787;DHT22;38661;53.152;5.846;2024-02-04T11:43:14;9.20;89.50
52787;DHT22;38661;53.152;5.846;2024-02-04T11:45:41;9.20;89.40
52787;DHT22;38661;53.152;5.846;2024-02-04T11:48:10;9.20;89.50
52787;DHT22;38661;53.152;5.846;2024-02-04T11:50:37;9.20;89.20
52787;DHT22;38661;53.152;5.846;2024-02-04T11:53:06;9.30;88.70
52787;DHT22;38661;53.152;5.846;2024-02-04T11:55:33;9.30;88.70
52787;DHT22;38661;53.152;5.846;2024-02-04T11:57:59;9.20;88.60
52787;DHT22;38661;53.152;5.846;2024-02-04T12:00:25;9.30;88.50
52787;DHT22;38661;53.152;5.846;2024-02-04T12:03:07;9.30;88.00
52787;DHT22;38661;53.152;5.846;2024-02-04T12:05:37;9.30;87.70
52787;DHT22;38661;53.152;5.846;2024-02-04T12:08:06;9.30;87.30
52787;DHT22;38661;53.152;5.846;2024-02-04T12:10:33;9.30;87.30
52787;DHT22;38661;53.152;5.846;2024-02-04T12:13:02;9.30;87.10
52787;DHT22;38661;53.152;5.846;2024-02-04T12:15:29;9.30;86.60
52787;DHT22;38661;53.152;5.846;2024-02-04T12:18:04;9.30;86.50
52787;DHT22;38661;53.152;5.846;2024-02-04T12:20:30;9.30;86.50
52787;DHT22;38661;53.152;5.846;2024-02-04T12:22:56;9.30;86.50
52787;DHT22;38661;53.152;5.846;2024-02-04T12:25:22;9.30;86.30
52787;DHT22;38661;53.152;5.846;2024-02-04T12:27:51;9.20;86.40
52787;DHT22;38661;53.152;5.846;2024-02-04T12:30:17;9.30;86.70
52787;DHT22;38661;53.152;5.846;2024-02-04T12:32:43;9.30;86.50
52787;DHT22;38661;53.152;5.846;2024-02-04T12:35:13;9.30;86.70
52787;DHT22;38661;53.152;5.846;2024-02-04T12:37:52;9.30;86.60
52787;DHT22;38661;53.152;5.846;2024-02-04T12:40:25;9.40;86.70
52787;DHT22;38661;53.152;5.846;2024-02-04T12:43:01;9.30;86.90
52787;DHT22;38661;53.152;5.846;2024-02-04T12:45:28;9.30;86.90
52787;DHT22;38661;53.152;5.846;2024-02-04T12:47:56;9.40;87.00
52787;DHT22;38661;53.152;5.846;2024-02-04T12:50:22;9.30;86.90
52787;DHT22;38661;53.152;5.846;2024-02-04T12:52:49;9.30;87.30
52787;DHT22;38661;53.152;5.846;2024-02-04T12:55:26;9.40;87.20
52787;DHT22;38661;53.152;5.846;2024-02-04T12:58:05;9.40;87.20
52787;DHT22;38661;53.152;5.846;2024-02-04T13:00:31;9.30;87.50
52787;DHT22;38661;53.152;5.846;2024-02-04T13:02:58;9.30;87.50
52787;DHT22;38661;53.152;5.846;2024-02-04T13:05:25;9.20;87.60
52787;DHT22;38661;53.152;5.846;2024-02-04T13:07:55;9.20;87.90
52787;DHT22;38661;53.152;5.846;2024-02-04T13:10:27;9.20;87.90
52787;DHT22;38661;53.152;5.846;2024-02-04T13:13:00;9.20;88.00
52787;DHT22;38661;53.152;5.846;2024-02-04T13:15:30;9.20;88.10
52787;DHT22;38661;53.152;5.846;2024-02-04T13:17:56;9.20;88.50
52787;DHT22;38661;53.152;5.846;2024-02-04T13:20:22;9.20;88.60
52787;DHT22;38661;53.152;5.846;2024-02-04T13:22:48;9.10;88.80
52787;DHT22;38661;53.152;5.846;2024-02-04T13:25:14;9.10;88.90
52787;DHT22;38661;53.152;5.846;2024-02-04T13:27:41;9.20;88.90
52787;DHT22;38661;53.152;5.846;2024-02-04T13:30:07;9.10;89.30
52787;DHT22;38661;53.152;5.846;2024-02-04T13:32:39;9.10;89.50
52787;DHT22;38661;53.152;5.846;2024-02-04T13:35:06;9.10;89.80
52787;DHT22;38661;53.152;5.846;2024-02-04T13:37:36;9.00;90.10
52787;DHT22;38661;53.152;5.846;2024-02-04T13:40:03;9.00;90.50
52787;DHT22;38661;53.152;5.846;2024-02-04T13:42:29;9.10;90.70
52787;DHT22;38661;53.152;5.846;2024-02-04T13:44:55;9.00;91.30
52787;DHT22;38661;53.152;5.846;2024-02-04T13:47:20;9.00;91.20
52787;DHT22;38661;53.152;5.846;2024-02-04T13:49:46;9.00;91.80
52787;DHT22;38661;53.152;5.846;2024-02-04T13:52:12;9.00;92.10
52787;DHT22;38661;53.152;5.846;2024-02-04T13:54:38;9.00;92.10
52787;DHT22;38661;53.152;5.846;2024-02-04T13:57:04;9.00;92.50
52787;DHT22;38661;53.152;5.846;2024-02-04T13:59:29;9.00;92.70
52787;DHT22;38661;53.152;5.846;2024-02-04T14:01:55;9.00;92.90
52787;DHT22;38661;53.152;5.846;2024-02-04T14:04:21;9.00;93.20
52787;DHT22;38661;53.152;5.846;2024-02-04T14:06:47;9.00;93.20
52787;DHT22;38661;53.152;5.846;2024-02-04T14:09:12;9.00;93.30
52787;DHT22;38661;53.152;5.846;2024-02-04T14:11:38;8.90;93.50
52787;DHT22;38661;53.152;5.846;2024-02-04T14:14:04;9.00;93.70
52787;DHT22;38661;53.152;5.846;2024-02-04T14:16:30;9.00;93.70
52787;DHT22;38661;53.152;5.846;2024-02-04T14:18:56;9.00;93.90
52787;DHT22;38661;53.152;5.846;2024-02-04T14:21:21;8.90;94.00
52787;DHT22;38661;53.152;5.846;2024-02-04T14:23:48;9.00;94.20
52787;DHT22;38661;53.152;5.846;2024-02-04T14:26:17;9.00;94.30
52787;DHT22;38661;53.152;5.846;2024-02-04T14:28:43;9.00;94.40
52787;DHT22;38661;53.152;5.846;2024-02-04T14:31:09;8.90;94.50
52787;DHT22;38661;53.152;5.846;2024-02-04T14:33:38;8.90;94.50
52787;DHT22;38661;53.152;5.846;2024-02-04T14:36:06;9.00;94.80
52787;DHT22;38661;53.152;5.846;2024-02-04T14:38:32;9.00;94.90
52787;DHT22;38661;53.152;5.846;2024-02-04T14:40:58;9.00;95.00
52787;DHT22;38661;53.152;5.846;2024-02-04T14:43:24;9.00;95.10
52787;DHT22;38661;53.152;5.846;2024-02-04T14:45:50;9.00;95.00
52787;DHT22;38661;53.152;5.846;2024-02-04T14:48:16;9.00;95.30
52787;DHT22;38661;53.152;5.846;2024-02-04T14:50:42;9.10;95.50
52787;DHT22;38661;53.152;5.846;2024-02-04T14:53:08;9.20;95.50
52787;DHT22;38661;53.152;5.846;2024-02-04T14:55:34;9.10;95.40
52787;DHT22;38661;53.152;5.846;2024-02-04T14:57:59;9.20;95.60
52787;DHT22;38661;53.152;5.846;2024-02-04T15:00:25;9.20;95.70
52787;DHT22;38661;53.152;5.846;2024-02-04T15:02:54;9.20;95.70
52787;DHT22;38661;53.152;5.846;2024-02-04T15:05:19;9.20;95.80
52787;DHT22;38661;53.152;5.846;2024-02-04T15:07:48;9.30;95.80
52787;DHT22;38661;53.152;5.846;2024-02-04T15:10:14;9.30;95.90
52787;DHT22;38661;53.152;5.846;2024-02-04T15:12:40;9.20;95.90
52787;DHT22;38661;53.152;5.846;2024-02-04T15:15:06;9.20;95.90
52787;DHT22;38661;53.152;5.846;2024-02-04T15:17:33;9.30;95.90
52787;DHT22;38661;53.152;5.846;2024-02-04T15:19:59;9.30;95.80
52787;DHT22;38661;53.152;5.846;2024-02-04T15:22:25;9.30;95.90
52787;DHT22;38661;53.152;5.846;2024-02-04T15:24:51;9.30;95.90
52787;DHT22;38661;53.152;5.846;2024-02-04T15:27:18;9.30;96.30
52787;DHT22;38661;53.152;5.846;2024-02-04T15:29:47;9.30;96.30
52787;DHT22;38661;53.152;5.846;2024-02-04T15:32:14;9.20;96.50
52787;DHT22;38661;53.152;5.846;2024-02-04T15:34:41;9.30;96.40
52787;DHT22;38661;53.152;5.846;2024-02-04T15:37:07;9.20;96.70
52787;DHT22;38661;53.152;5.846;2024-02-04T15:39:34;9.30;96.90
52787;DHT22;38661;53.152;5.846;2024-02-04T15:42:03;9.30;96.80
52787;DHT22;38661;53.152;5.846;2024-02-04T15:44:32;9.30;96.90
52787;DHT22;38661;53.152;5.846;2024-02-04T15:46:59;9.30;97.00
52787;DHT22;38661;53.152;5.846;2024-02-04T15:49:26;9.30;97.00
52787;DHT22;38661;53.152;5.846;2024-02-04T15:51:53;9.30;97.10
52787;DHT22;38661;53.152;5.846;2024-02-04T15:54:20;9.30;97.00